createdAt,value
2019-01-20T00:02:11.057Z,24.60
2019-01-20T00:04:38.698Z,23.80
2019-01-20T00:07:06.360Z,21.82
2019-01-20T00:09:34.092Z,20.48
2019-01-20T00:12:01.862Z,18.85
2019-01-20T00:14:29.518Z,20.75
2019-01-20T00:16:57.223Z,19.82
2019-01-20T00:19:24.894Z,23.65
2019-01-20T00:21:52.574Z,18.05
2019-01-20T00:24:20.304Z,21.30
2019-01-20T00:26:47.937Z,23.98
2019-01-20T00:29:15.594Z,19.00
2019-01-20T00:31:43.320Z,18.73
2019-01-20T00:34:11.001Z,18.15
2019-01-20T00:36:38.736Z,24.85
2019-01-20T00:39:08.024Z,18.52
2019-01-20T00:41:35.679Z,22.00
2019-01-20T00:44:03.581Z,18.95
2019-01-20T00:46:31.249Z,17.65
2019-01-20T00:48:58.936Z,23.25
2019-01-20T00:51:26.751Z,23.77
2019-01-20T00:53:54.451Z,19.00
2019-01-20T00:56:22.121Z,24.85
2019-01-20T00:58:49.741Z,22.60
2019-01-20T01:01:17.403Z,22.93
2019-01-20T01:03:45.090Z,26.45
2019-01-20T01:06:12.940Z,25.92
2019-01-20T01:08:40.659Z,17.32
2019-01-20T01:11:08.273Z,21.50
2019-01-20T01:13:36.350Z,24.92
2019-01-20T01:16:04.103Z,18.32
2019-01-20T01:18:31.796Z,22.55
2019-01-20T01:20:59.474Z,23.60
2019-01-20T01:23:27.157Z,20.27
2019-01-20T01:25:54.784Z,22.32
2019-01-20T01:28:22.520Z,22.95
2019-01-20T01:30:50.167Z,22.07
2019-01-20T01:33:17.817Z,22.15
2019-01-20T01:35:45.537Z,24.07
2019-01-20T01:38:13.162Z,18.82
2019-01-20T01:40:41.099Z,23.25
2019-01-20T01:43:08.749Z,22.52
2019-01-20T01:45:36.397Z,22.58
2019-01-20T01:48:04.108Z,20.68
2019-01-20T01:50:31.753Z,21.35
2019-01-20T01:52:59.413Z,19.12
2019-01-20T01:55:27.152Z,23.35
2019-01-20T01:57:54.801Z,24.20
2019-01-20T02:00:23.059Z,25.90
2019-01-20T02:02:50.751Z,22.52
2019-01-20T02:05:18.688Z,18.12
2019-01-20T02:07:46.510Z,23.45
2019-01-20T02:10:16.357Z,20.95
2019-01-20T02:12:44.148Z,23.27
2019-01-20T02:15:12.849Z,22.55
2019-01-20T02:17:40.604Z,17.00
2019-01-20T02:20:09.967Z,24.55
2019-01-20T02:22:37.612Z,22.55
2019-01-20T02:25:05.904Z,19.82
2019-01-20T02:27:33.519Z,22.32
2019-01-20T02:30:01.215Z,19.15
2019-01-20T02:32:29.034Z,22.10
2019-01-20T02:34:56.652Z,21.87
2019-01-20T02:37:24.298Z,20.05
2019-01-20T02:39:51.953Z,20.88
2019-01-20T02:42:19.620Z,24.05
2019-01-20T02:44:47.271Z,19.02
2019-01-20T02:47:14.931Z,21.25
2019-01-20T02:49:42.694Z,24.07
2019-01-20T02:52:10.329Z,26.45
2019-01-20T02:54:37.968Z,23.77
2019-01-20T02:57:05.628Z,29.10
2019-01-20T02:59:33.232Z,23.40
2019-01-20T03:02:00.928Z,23.98
2019-01-20T03:04:28.608Z,24.98
2019-01-20T03:06:56.331Z,21.80
2019-01-20T03:09:23.976Z,23.55
2019-01-20T03:11:51.648Z,24.40
2019-01-20T03:14:19.295Z,21.90
2019-01-20T03:16:46.988Z,21.52
2019-01-20T03:19:14.615Z,24.25
2019-01-20T03:21:42.494Z,21.45
2019-01-20T03:24:10.134Z,22.32
2019-01-20T03:26:37.808Z,25.23
2019-01-20T03:29:05.446Z,27.17
2019-01-20T03:31:33.110Z,23.75
2019-01-20T03:34:00.727Z,27.13
2019-01-20T03:36:28.364Z,25.88
2019-01-20T03:38:56.114Z,23.38
2019-01-20T03:41:23.780Z,26.55
2019-01-20T03:43:51.445Z,22.52
2019-01-20T03:46:19.113Z,23.42
2019-01-20T03:48:46.776Z,25.88
2019-01-20T03:51:14.441Z,23.50
2019-01-20T03:53:42.064Z,24.90
2019-01-20T03:56:09.767Z,25.88
2019-01-20T03:58:37.410Z,24.40
2019-01-20T04:01:05.070Z,25.08
2019-01-20T04:03:32.774Z,22.02
2019-01-20T04:06:00.451Z,24.32
2019-01-20T04:08:28.121Z,23.00
2019-01-20T04:10:55.767Z,24.35
2019-01-20T04:13:23.442Z,30.43
2019-01-20T04:15:51.079Z,26.35
2019-01-20T04:18:18.723Z,24.10
2019-01-20T04:20:46.406Z,24.47
2019-01-20T04:23:14.083Z,27.27
2019-01-20T04:25:41.731Z,23.00
2019-01-20T04:28:09.550Z,20.62
2019-01-20T04:30:37.217Z,20.40
2019-01-20T04:33:04.867Z,28.40
2019-01-20T04:35:32.546Z,21.97
2019-01-20T04:38:00.174Z,25.97
2019-01-20T04:40:28.159Z,22.40
2019-01-20T04:42:55.814Z,27.87
2019-01-20T04:45:23.610Z,23.15
2019-01-20T04:47:51.273Z,24.80
2019-01-20T04:50:20.805Z,27.65
2019-01-20T04:52:48.596Z,27.90
2019-01-20T04:55:16.680Z,26.57
2019-01-20T04:57:48.337Z,26.12
2019-01-20T05:00:17.693Z,25.23
2019-01-20T05:02:45.363Z,26.70
2019-01-20T05:05:13.205Z,34.00
2019-01-20T05:07:40.889Z,27.73
2019-01-20T05:10:10.168Z,25.97
2019-01-20T05:12:38.078Z,28.87
2019-01-20T05:15:07.795Z,31.82
2019-01-20T05:17:35.524Z,28.98
2019-01-20T05:20:04.419Z,28.20
2019-01-20T05:22:32.107Z,24.02
2019-01-20T05:24:59.716Z,31.75
2019-01-20T05:27:27.469Z,31.82
2019-01-20T05:29:55.123Z,30.65
2019-01-20T05:32:22.796Z,28.90
2019-01-20T05:34:50.448Z,31.35
2019-01-20T05:37:18.034Z,24.75
2019-01-20T05:39:45.707Z,30.27
2019-01-20T05:42:13.339Z,27.82
2019-01-20T05:44:41.040Z,32.03
2019-01-20T05:47:08.671Z,27.67
2019-01-20T05:49:36.374Z,29.40
2019-01-20T05:52:04.211Z,25.85
2019-01-20T05:54:31.859Z,26.27
2019-01-20T05:56:59.540Z,30.88
2019-01-20T05:59:27.232Z,30.32
2019-01-20T06:01:54.909Z,28.87
2019-01-20T06:04:22.552Z,28.85
2019-01-20T06:06:50.336Z,36.25
2019-01-20T06:09:17.996Z,30.27
2019-01-20T06:11:45.660Z,26.65
2019-01-20T06:14:13.357Z,20.08
2019-01-20T06:16:40.978Z,27.05
2019-01-20T06:19:08.628Z,32.98
2019-01-20T06:21:36.262Z,26.52
2019-01-20T06:24:04.055Z,25.52
2019-01-20T06:26:31.681Z,24.77
2019-01-20T06:28:59.328Z,29.18
2019-01-20T06:31:27.020Z,26.85
2019-01-20T06:33:54.711Z,23.92
2019-01-20T06:36:22.369Z,28.67
2019-01-20T06:38:50.058Z,22.45
2019-01-20T06:41:17.680Z,25.82
2019-01-20T06:43:45.345Z,25.65
2019-01-20T06:46:13.010Z,25.10
2019-01-20T06:48:40.659Z,26.40
2019-01-20T06:51:08.309Z,29.70
2019-01-20T06:53:36.015Z,26.57
2019-01-20T06:56:03.991Z,28.40
2019-01-20T06:58:31.652Z,22.82
2019-01-20T07:00:59.336Z,28.27
2019-01-20T07:03:26.996Z,26.07
2019-01-20T07:05:54.608Z,29.82
2019-01-20T07:08:22.339Z,30.85
2019-01-20T07:10:50.013Z,26.50
2019-01-20T07:13:17.690Z,22.70
2019-01-20T07:15:45.335Z,24.45
2019-01-20T07:18:13.022Z,27.40
2019-01-20T07:20:40.681Z,24.50
2019-01-20T07:23:08.356Z,24.00
2019-01-20T07:25:36.060Z,27.42
2019-01-20T07:28:03.771Z,38.73
2019-01-20T07:30:31.435Z,31.62
2019-01-20T07:32:59.083Z,37.17
2019-01-20T07:35:26.770Z,27.77
2019-01-20T07:37:54.444Z,27.32
2019-01-20T07:40:22.849Z,29.82
2019-01-20T07:42:50.594Z,27.07
2019-01-20T07:45:18.282Z,36.42
2019-01-20T07:47:45.923Z,28.15
2019-01-20T07:50:18.643Z,31.25
2019-01-20T07:52:46.288Z,33.23
2019-01-20T07:55:14.068Z,33.45
2019-01-20T07:57:41.697Z,25.37
2019-01-20T08:00:11.784Z,29.20
2019-01-20T08:02:39.552Z,25.32
2019-01-20T08:05:07.536Z,26.80
2019-01-20T08:07:35.209Z,28.20
2019-01-20T08:10:03.352Z,26.55
2019-01-20T08:12:31.014Z,29.60
2019-01-20T08:14:58.689Z,29.25
2019-01-20T08:17:26.471Z,27.42
2019-01-20T08:19:54.095Z,33.15
2019-01-20T08:22:21.716Z,28.83
2019-01-20T08:24:49.390Z,32.73
2019-01-20T08:27:17.032Z,30.52
2019-01-20T08:29:44.668Z,42.98
2019-01-20T08:32:12.334Z,51.00
2019-01-20T08:34:39.994Z,36.35
2019-01-20T08:37:07.623Z,34.50
2019-01-20T08:39:35.358Z,34.55
2019-01-20T08:42:03.031Z,39.20
2019-01-20T08:44:33.912Z,51.45
2019-01-20T08:47:16.429Z,40.73
2019-01-20T08:49:44.095Z,36.60
2019-01-20T08:52:11.751Z,42.30
2019-01-20T08:54:39.401Z,36.25
2019-01-20T08:57:07.032Z,39.98
2019-01-20T08:59:34.722Z,35.23
2019-01-20T09:02:02.408Z,34.63
2019-01-20T09:04:30.089Z,37.28
2019-01-20T09:06:57.801Z,35.98
2019-01-20T09:09:25.466Z,36.77
2019-01-20T09:11:53.088Z,37.73
2019-01-20T09:14:20.768Z,37.83
2019-01-20T09:16:49.060Z,39.05
2019-01-20T09:19:16.673Z,45.17
2019-01-20T09:21:44.464Z,37.63
2019-01-20T09:24:12.103Z,35.13
2019-01-20T09:26:39.776Z,34.23
2019-01-20T09:29:07.397Z,38.17
2019-01-20T09:31:35.078Z,30.60
2019-01-20T09:34:02.728Z,31.52
2019-01-20T09:36:30.427Z,34.98
2019-01-20T09:38:58.092Z,32.75
2019-01-20T09:41:25.751Z,30.70
2019-01-20T09:43:53.449Z,35.95
2019-01-20T09:46:21.116Z,33.45
2019-01-20T09:48:48.774Z,34.38
2019-01-20T09:51:16.464Z,35.13
2019-01-20T09:53:44.146Z,34.73
2019-01-20T09:56:11.823Z,33.15
2019-01-20T09:58:39.487Z,31.23
2019-01-20T10:01:07.131Z,34.60
2019-01-20T10:03:34.780Z,31.35
2019-01-20T10:06:02.428Z,34.50
2019-01-20T10:08:30.080Z,37.20
2019-01-20T10:10:57.729Z,39.13
2019-01-20T10:13:25.404Z,33.67
2019-01-20T10:15:53.095Z,38.55
2019-01-20T10:18:20.730Z,35.68
2019-01-20T10:20:48.426Z,31.33
2019-01-20T10:23:16.086Z,36.68
2019-01-20T10:25:43.724Z,35.43
2019-01-20T10:28:13.991Z,41.13
2019-01-20T10:30:41.647Z,38.08
2019-01-20T10:33:10.380Z,39.50
2019-01-20T10:35:48.252Z,33.08
2019-01-20T10:38:16.376Z,39.58
2019-01-20T10:40:44.103Z,36.35
2019-01-20T10:43:11.747Z,33.78
2019-01-20T10:45:39.421Z,39.48
2019-01-20T10:48:07.155Z,33.88
2019-01-20T10:50:34.824Z,43.87
2019-01-20T10:53:02.465Z,40.75
2019-01-20T10:55:30.255Z,40.80
2019-01-20T10:57:57.886Z,42.27
2019-01-20T11:00:27.835Z,49.90
2019-01-20T11:02:55.503Z,44.93
2019-01-20T11:05:25.094Z,43.87
2019-01-20T11:07:52.747Z,48.17
2019-01-20T11:10:20.380Z,46.18
2019-01-20T11:12:48.041Z,41.15
2019-01-20T11:15:15.822Z,40.15
2019-01-20T11:17:43.492Z,45.92
2019-01-20T11:20:12.012Z,43.33
2019-01-20T11:22:39.671Z,44.50
2019-01-20T11:25:10.152Z,46.30
2019-01-20T11:27:37.825Z,43.45
2019-01-20T11:30:05.959Z,44.93
2019-01-20T11:32:33.673Z,42.05
2019-01-20T11:35:01.267Z,42.85
2019-01-20T11:37:28.945Z,42.38
2019-01-20T11:39:56.592Z,42.38
2019-01-20T11:42:24.256Z,43.23
2019-01-20T11:44:51.964Z,46.08
2019-01-20T11:47:19.628Z,43.50
2019-01-20T11:49:47.231Z,41.53
2019-01-20T11:52:14.914Z,42.50
2019-01-20T11:54:42.519Z,42.30
2019-01-20T11:57:10.187Z,44.55
2019-01-20T11:59:37.845Z,42.80
2019-01-20T12:02:05.506Z,48.05
2019-01-20T12:04:33.164Z,45.48
2019-01-20T12:07:00.843Z,46.33
2019-01-20T12:09:28.499Z,49.10
2019-01-20T12:11:56.140Z,42.17
2019-01-20T12:14:24.191Z,43.08
2019-01-20T12:16:52.047Z,42.55
2019-01-20T12:19:19.714Z,42.60
2019-01-20T12:21:47.355Z,43.17
2019-01-20T12:24:15.060Z,44.58
2019-01-20T12:26:42.698Z,48.52
2019-01-20T12:29:10.340Z,44.55
2019-01-20T12:31:38.014Z,43.13
2019-01-20T12:34:05.655Z,42.58
2019-01-20T12:36:33.315Z,43.78
2019-01-20T12:39:00.962Z,39.92
2019-01-20T12:41:28.670Z,42.25
2019-01-20T12:43:56.328Z,40.28
2019-01-20T12:46:23.995Z,41.40
2019-01-20T12:48:51.647Z,36.65
2019-01-20T12:51:19.352Z,32.73
2019-01-20T12:53:47.255Z,40.28
2019-01-20T12:56:14.889Z,43.90
2019-01-20T12:58:42.547Z,42.23
2019-01-20T13:01:10.280Z,40.75
2019-01-20T13:03:37.919Z,40.12
2019-01-20T13:06:05.546Z,44.25
2019-01-20T13:08:33.255Z,45.80
2019-01-20T13:11:00.886Z,44.30
2019-01-20T13:13:28.579Z,38.02
2019-01-20T13:15:56.184Z,43.63
2019-01-20T13:18:23.873Z,44.67
2019-01-20T13:20:51.760Z,41.40
2019-01-20T13:23:19.560Z,41.08
2019-01-20T13:25:47.202Z,39.83
2019-01-20T13:28:14.832Z,47.00
2019-01-20T13:30:42.475Z,47.13
2019-01-20T13:33:10.094Z,40.50
2019-01-20T13:35:37.780Z,42.70
2019-01-20T13:38:13.891Z,47.13
2019-01-20T13:40:44.714Z,36.00
2019-01-20T13:43:12.355Z,39.88
2019-01-20T13:45:40.035Z,36.90
2019-01-20T13:48:07.725Z,39.75
2019-01-20T13:50:35.346Z,47.10
2019-01-20T13:53:03.093Z,43.65
2019-01-20T13:55:30.738Z,41.88
2019-01-20T13:57:58.426Z,45.78
2019-01-20T14:00:26.255Z,47.20
2019-01-20T14:02:53.860Z,48.15
2019-01-20T14:05:21.623Z,44.48
2019-01-20T14:07:49.375Z,44.58
2019-01-20T14:10:17.763Z,53.83
2019-01-20T14:12:45.621Z,50.23
2019-01-20T14:15:13.774Z,50.33
2019-01-20T14:17:41.480Z,56.05
2019-01-20T14:20:12.644Z,51.68
2019-01-20T14:22:40.290Z,46.63
2019-01-20T14:25:09.124Z,47.00
2019-01-20T14:27:36.747Z,47.45
2019-01-20T14:30:06.101Z,53.02
2019-01-20T14:32:33.732Z,50.08
2019-01-20T14:35:01.406Z,54.20
2019-01-20T14:37:29.071Z,53.02
2019-01-20T14:39:56.772Z,51.50
2019-01-20T14:42:24.436Z,47.53
2019-01-20T14:44:52.111Z,52.88
2019-01-20T14:47:19.803Z,51.20
2019-01-20T14:49:47.416Z,52.73
2019-01-20T14:52:15.104Z,56.30
2019-01-20T14:54:42.728Z,54.15
2019-01-20T14:57:10.448Z,59.63
2019-01-20T14:59:38.083Z,50.58
2019-01-20T15:02:05.737Z,52.27
2019-01-20T15:04:33.431Z,54.00
2019-01-20T15:07:01.139Z,55.52
2019-01-20T15:09:28.872Z,53.55
2019-01-20T15:11:56.506Z,53.83
2019-01-20T15:14:24.191Z,53.15
2019-01-20T15:16:51.863Z,60.30
2019-01-20T15:19:19.536Z,60.50
2019-01-20T15:21:47.180Z,56.33
2019-01-20T15:24:14.823Z,60.38
2019-01-20T15:26:42.486Z,60.00
2019-01-20T15:29:10.133Z,62.48
2019-01-20T15:31:37.777Z,56.77
2019-01-20T15:34:05.428Z,56.77
2019-01-20T15:36:33.207Z,60.92
2019-01-20T15:39:00.833Z,55.90
2019-01-20T15:41:28.478Z,57.98
2019-01-20T15:43:56.135Z,57.65
2019-01-20T15:46:23.806Z,55.45
2019-01-20T15:48:51.460Z,54.05
2019-01-20T15:51:19.123Z,53.45
2019-01-20T15:53:46.768Z,55.48
2019-01-20T15:56:14.416Z,49.80
2019-01-20T15:58:42.044Z,58.35
2019-01-20T16:01:09.681Z,51.83
2019-01-20T16:03:37.399Z,60.90
2019-01-20T16:06:04.995Z,56.73
2019-01-20T16:08:32.680Z,46.92
2019-01-20T16:11:00.347Z,52.93
2019-01-20T16:13:28.031Z,52.62
2019-01-20T16:15:55.713Z,58.25
2019-01-20T16:18:23.405Z,55.85
2019-01-20T16:20:51.029Z,51.90
2019-01-20T16:23:18.819Z,56.77
2019-01-20T16:25:46.489Z,54.48
2019-01-20T16:28:14.143Z,67.70
2019-01-20T16:30:41.806Z,61.33
2019-01-20T16:33:09.482Z,54.00
2019-01-20T16:35:37.119Z,63.70
2019-01-20T16:38:06.186Z,60.75
2019-01-20T16:40:33.891Z,61.50
2019-01-20T16:43:01.608Z,55.65
2019-01-20T16:45:41.626Z,61.33
2019-01-20T16:48:05.537Z,69.67
2019-01-20T16:50:33.524Z,59.45
2019-01-20T16:53:01.186Z,63.98
2019-01-20T16:55:28.816Z,62.23
2019-01-20T16:57:56.503Z,65.60
2019-01-20T17:00:26.282Z,65.10
2019-01-20T17:02:54.140Z,59.48
2019-01-20T17:05:26.541Z,65.90
2019-01-20T17:07:51.441Z,67.22
2019-01-20T17:10:21.237Z,59.75
2019-01-20T17:12:48.891Z,67.80
2019-01-20T17:15:21.635Z,76.20
2019-01-20T17:17:49.333Z,62.75
2019-01-20T17:20:17.025Z,61.48
2019-01-20T17:22:45.068Z,66.67
2019-01-20T17:25:13.336Z,66.67
2019-01-20T17:27:40.947Z,61.60
2019-01-20T17:30:11.944Z,60.52
2019-01-20T17:32:39.745Z,61.73
2019-01-20T17:35:08.328Z,61.00
2019-01-20T17:37:35.980Z,69.03
2019-01-20T17:40:05.040Z,58.92
2019-01-20T17:42:32.697Z,71.75
2019-01-20T17:45:00.391Z,62.83
2019-01-20T17:47:28.087Z,62.95
2019-01-20T17:49:55.713Z,55.00
2019-01-20T17:52:23.331Z,58.75
2019-01-20T17:54:51.027Z,62.05
2019-01-20T17:57:18.718Z,56.73
2019-01-20T17:59:46.327Z,58.15
2019-01-20T18:02:14.049Z,61.58
2019-01-20T18:04:41.739Z,57.90
2019-01-20T18:07:09.416Z,54.35
2019-01-20T18:09:37.100Z,66.80
2019-01-20T18:12:04.808Z,59.77
2019-01-20T18:14:32.424Z,62.65
2019-01-20T18:17:00.084Z,55.83
2019-01-20T18:19:27.746Z,60.58
2019-01-20T18:21:55.388Z,62.75
2019-01-20T18:24:23.071Z,60.00
2019-01-20T18:26:50.697Z,57.00
2019-01-20T18:29:18.372Z,62.53
2019-01-20T18:31:46.049Z,61.37
2019-01-20T18:34:13.664Z,59.05
2019-01-20T18:36:41.326Z,65.20
2019-01-20T18:39:09.049Z,57.20
2019-01-20T18:41:36.840Z,62.70
2019-01-20T18:44:04.570Z,59.75
2019-01-20T18:46:32.211Z,63.38
2019-01-20T18:48:59.886Z,62.35
2019-01-20T18:51:27.530Z,63.60
2019-01-20T18:53:55.223Z,63.80
2019-01-20T18:56:22.866Z,73.12
2019-01-20T18:58:50.594Z,66.17
2019-01-20T19:01:18.195Z,69.55
2019-01-20T19:03:45.868Z,72.90
2019-01-20T19:06:13.539Z,64.77
2019-01-20T19:08:41.251Z,70.83
2019-01-20T19:11:08.924Z,56.90
2019-01-20T19:13:36.597Z,68.70
2019-01-20T19:16:08.906Z,65.72
2019-01-20T19:18:33.791Z,63.00
2019-01-20T19:21:01.531Z,64.77
2019-01-20T19:23:29.177Z,74.32
2019-01-20T19:25:56.814Z,78.05
2019-01-20T19:28:24.500Z,69.47
2019-01-20T19:30:52.170Z,70.42
2019-01-20T19:33:19.876Z,64.12
2019-01-20T19:35:47.550Z,65.37
2019-01-20T19:38:15.224Z,85.95
2019-01-20T19:40:42.864Z,73.25
2019-01-20T19:43:10.506Z,79.70
2019-01-20T19:45:38.132Z,68.62
2019-01-20T19:48:05.783Z,70.92
2019-01-20T19:50:33.475Z,64.82
2019-01-20T19:53:01.175Z,84.40
2019-01-20T19:55:30.677Z,65.30
2019-01-20T19:57:58.529Z,63.30
2019-01-20T20:00:28.229Z,68.10
2019-01-20T20:02:56.110Z,67.58
2019-01-20T20:05:23.868Z,62.33
2019-01-20T20:07:52.368Z,64.87
2019-01-20T20:10:21.970Z,63.28
2019-01-20T20:12:49.931Z,64.82
2019-01-20T20:15:22.025Z,59.40
2019-01-20T20:17:49.694Z,61.00
2019-01-20T20:20:17.715Z,58.42
2019-01-20T20:23:06.312Z,62.80
2019-01-20T20:25:46.699Z,60.60
2019-01-20T20:28:26.468Z,62.03
2019-01-20T20:31:06.586Z,53.55
2019-01-20T20:33:46.686Z,58.25
2019-01-20T20:36:26.715Z,58.30
2019-01-20T20:39:06.632Z,60.38
2019-01-20T20:41:46.837Z,62.48
2019-01-20T20:44:27.081Z,54.10
2019-01-20T20:47:07.207Z,65.03
2019-01-20T20:49:47.278Z,68.00
2019-01-20T20:52:27.337Z,59.18
2019-01-20T20:55:07.430Z,58.80
2019-01-20T20:57:47.615Z,62.88
2019-01-20T21:00:27.459Z,62.58
2019-01-20T21:03:07.708Z,63.42
2019-01-20T21:05:47.705Z,59.73
2019-01-20T21:08:27.840Z,66.87
2019-01-20T21:11:07.940Z,62.78
2019-01-20T21:13:47.723Z,59.23
2019-01-20T21:16:27.885Z,53.25
2019-01-20T21:19:08.060Z,59.93
2019-01-20T21:21:48.188Z,57.27
2019-01-20T21:24:28.283Z,53.75
2019-01-20T21:27:08.104Z,58.23
2019-01-20T21:29:48.165Z,67.10
2019-01-20T21:32:28.218Z,55.08
2019-01-20T21:35:08.445Z,53.40
2019-01-20T21:37:48.486Z,55.43
2019-01-20T21:40:28.413Z,60.83
2019-01-20T21:43:08.533Z,59.15
2019-01-20T21:45:48.361Z,64.67
2019-01-20T21:48:28.463Z,59.23
2019-01-20T21:51:08.390Z,66.85
2019-01-20T21:53:48.672Z,64.05
2019-01-20T21:56:29.156Z,57.40
2019-01-20T21:59:09.209Z,63.33
2019-01-20T22:01:49.276Z,65.28
2019-01-20T22:04:29.368Z,71.33
2019-01-20T22:07:09.258Z,60.00
2019-01-20T22:09:49.475Z,63.35
2019-01-20T22:12:29.792Z,59.60
2019-01-20T22:15:09.547Z,62.25
2019-01-20T22:17:49.454Z,58.05
2019-01-20T22:20:29.532Z,53.87
2019-01-20T22:23:09.804Z,60.03
2019-01-20T22:25:49.702Z,67.08
2019-01-20T22:28:29.697Z,63.25
2019-01-20T22:31:09.559Z,65.45
2019-01-20T22:33:49.689Z,68.15
2019-01-20T22:36:30.084Z,71.15
2019-01-20T22:39:09.835Z,70.70
2019-01-20T22:41:49.606Z,65.57
2019-01-20T22:44:29.629Z,66.02
2019-01-20T22:47:09.327Z,72.12
2019-01-20T22:49:49.470Z,70.15
2019-01-20T22:52:29.374Z,74.65
2019-01-20T22:55:09.435Z,65.03
2019-01-20T22:57:49.334Z,67.03
2019-01-20T23:03:23.195Z,66.53
2019-01-20T23:06:03.183Z,69.30
2019-01-20T23:08:43.324Z,59.58
2019-01-20T23:11:23.336Z,70.05
2019-01-20T23:14:03.504Z,66.45
2019-01-20T23:16:43.473Z,60.33
2019-01-20T23:19:23.481Z,62.58
2019-01-20T23:22:03.597Z,72.37
2019-01-20T23:24:43.501Z,65.28
2019-01-20T23:27:23.531Z,64.25
2019-01-20T23:30:03.598Z,69.80
2019-01-20T23:32:43.630Z,72.85
2019-01-20T23:35:23.584Z,64.95
2019-01-20T23:38:03.425Z,69.53
2019-01-20T23:40:43.407Z,64.22
2019-01-20T23:43:23.681Z,64.10
2019-01-20T23:46:03.876Z,72.15
2019-01-20T23:48:43.860Z,71.60
2019-01-20T23:51:23.672Z,59.67
2019-01-20T23:54:03.987Z,64.75
2019-01-20T23:56:43.989Z,67.58
2019-01-20T23:59:24.137Z,61.35
